Point Reyes Station, California
Current Conditions -  °F | °C
As of 10:35 AM on Saturday 25 Oct 2014 (Local Time) from KDVO Reporting Station
Scattered Clouds Scattered Clouds  
Wind Chill: 18°   Ceiling: Unl
Heat Index: 18°   Visibility: 10mi
Dew Point: 14°   Wind: 9mph
Humidity: 77%   Direction: 190°S
Pressure: 30.03"   Gusts: NA
Location:  38.07°N, 122.81°W
Report Text: KDVO 251735Z AUTO 19008KT 10SM FEW038 SCT048 SCT060 18/14 A3003 RMK AO2
Loading
Personal Weather Stations






























Interactive Weather Map
Tropical Storm Tracking
New forecast layout! Learn more

10-Day Weather Forecast

Advertisements
Track Severe Weather on mobile